Time;durP1;ratioP1;P1;durP2;ratioP2;P2;SDS_P1;SDS_P2;PMS_P1;PMS_P2;Temp;Humidity;BMP_temperature;BMP_pressure;BME280_temperature;BME280_humidity;BME280_pressure;Samples;Min_cycle;Max_cycle;Signal;HPM_P1;HPM_P2
2023/01/20 00:00:25;;;;;;;84.93;30.60;;;;;;;0.32;100.00;100729.09;4935777;28;20085;-79
2023/01/20 00:02:50;;;;;;;76.75;28.33;;;;;;;0.38;100.00;100734.25;4959147;28;20047;-79
2023/01/20 00:05:16;;;;;;;82.18;28.63;;;;;;;0.44;100.00;100738.50;4944725;28;20483;-79
2023/01/20 00:07:41;;;;;;;77.95;28.73;;;;;;;0.36;100.00;100745.09;4936612;29;20043;-79
2023/01/20 00:10:08;;;;;;;76.10;30.67;;;;;;;0.45;100.00;100738.47;4952861;28;20142;-79
2023/01/20 00:12:33;;;;;;;81.53;31.20;;;;;;;0.43;100.00;100742.16;4935739;28;20554;-79
2023/01/20 00:14:58;;;;;;;95.65;33.50;;;;;;;0.47;100.00;100743.78;4954551;28;20114;-79
2023/01/20 00:17:24;;;;;;;88.25;32.00;;;;;;;0.42;100.00;100740.41;4952347;28;20095;-79
2023/01/20 00:19:49;;;;;;;81.03;32.67;;;;;;;0.42;100.00;100741.25;4930232;29;20031;-78
2023/01/20 00:22:15;;;;;;;90.72;31.83;;;;;;;0.44;100.00;100744.78;4935758;28;20035;-78
2023/01/20 00:24:40;;;;;;;93.65;30.13;;;;;;;0.41;100.00;100747.63;4969288;28;20471;-78
2023/01/20 00:27:06;;;;;;;101.00;32.13;;;;;;;0.45;100.00;100753.75;4925356;28;20541;-78
2023/01/20 00:29:47;;;;;;;103.28;32.13;;;;;;;0.41;100.00;100744.03;4904282;29;20779;-79
2023/01/20 00:32:12;;;;;;;83.97;32.63;;;;;;;0.37;100.00;100737.88;4948523;29;20036;-78
2023/01/20 00:34:37;;;;;;;96.30;33.28;;;;;;;0.58;100.00;100768.50;4944532;28;20040;-79
2023/01/20 00:37:03;;;;;;;92.13;33.78;;;;;;;0.48;100.00;100765.28;4932975;29;20127;-79
2023/01/20 00:39:28;;;;;;;90.15;30.65;;;;;;;0.49;100.00;100775.13;4947051;29;20446;-78
2023/01/20 00:41:54;;;;;;;93.72;30.70;;;;;;;0.40;100.00;100766.53;4926206;29;20127;-79
2023/01/20 00:44:19;;;;;;;97.45;32.70;;;;;;;0.44;100.00;100771.69;4936680;29;20394;-79
2023/01/20 00:46:45;;;;;;;105.50;33.55;;;;;;;0.46;100.00;100774.34;4924298;29;20111;-79
2023/01/20 00:49:11;;;;;;;85.97;32.53;;;;;;;0.48;100.00;100773.34;4918844;29;20036;-79
2023/01/20 00:51:36;;;;;;;111.63;33.70;;;;;;;0.37;100.00;100764.81;4914091;29;20127;-79
2023/01/20 00:54:01;;;;;;;105.20;33.33;;;;;;;0.42;100.00;100775.41;4938244;29;20063;-79
2023/01/20 00:56:27;;;;;;;95.22;29.15;;;;;;;0.38;100.00;100784.53;4912638;29;20565;-79
2023/01/20 00:58:54;;;;;;;90.82;30.95;;;;;;;0.44;100.00;100782.47;4927843;29;20123;-79
2023/01/20 01:01:20;;;;;;;82.88;29.83;;;;;;;0.42;100.00;100789.75;4937070;29;20032;-79
2023/01/20 01:03:45;;;;;;;85.03;28.58;;;;;;;0.40;100.00;100782.69;4936624;29;20038;-78
2023/01/20 01:06:16;;;;;;;104.95;31.83;;;;;;;0.45;100.00;100784.25;4919923;29;20043;-79
2023/01/20 01:08:42;;;;;;;99.82;32.15;;;;;;;0.44;100.00;100774.41;4938070;29;20024;-79
2023/01/20 01:11:08;;;;;;;87.38;30.40;;;;;;;0.43;100.00;100788.81;4926710;29;20042;-79
2023/01/20 01:13:34;;;;;;;106.80;31.33;;;;;;;0.51;100.00;100792.09;4926231;29;20660;-79
2023/01/20 01:16:00;;;;;;;91.40;28.00;;;;;;;0.49;100.00;100798.47;4913572;29;20036;-79
2023/01/20 01:18:25;;;;;;;98.80;30.35;;;;;;;0.44;100.00;100790.56;4934536;29;20028;-78
2023/01/20 01:20:51;;;;;;;89.13;28.13;;;;;;;0.45;100.00;100805.78;4949205;29;20495;-79
2023/01/20 01:23:16;;;;;;;75.97;27.35;;;;;;;0.33;100.00;100795.50;4906536;29;20175;-79
2023/01/20 01:25:42;;;;;;;82.45;25.42;;;;;;;0.33;100.00;100790.97;4944628;29;20054;-79
2023/01/20 01:28:07;;;;;;;82.60;27.27;;;;;;;0.31;100.00;100802.72;4920704;28;20105;-79
2023/01/20 01:30:32;;;;;;;77.82;24.92;;;;;;;0.28;100.00;100803.75;4909574;28;20614;-79
2023/01/20 01:32:58;;;;;;;84.00;25.27;;;;;;;0.34;100.00;100802.63;4949537;29;20066;-79
2023/01/20 01:35:23;;;;;;;69.35;21.13;;;;;;;0.25;100.00;100795.78;4952687;28;20043;-78
2023/01/20 01:37:49;;;;;;;77.10;20.58;;;;;;;0.13;100.00;100812.38;4962436;28;20606;-79
2023/01/20 01:40:14;;;;;;;82.80;21.35;;;;;;;0.23;100.00;100816.50;4931219;29;20393;-79
2023/01/20 01:42:40;;;;;;;73.35;23.58;;;;;;;0.19;100.00;100814.84;4946090;28;20039;-79
2023/01/20 01:45:09;;;;;;;79.93;24.73;;;;;;;0.34;100.00;100818.78;4920051;28;20047;-79
2023/01/20 01:47:37;;;;;;;77.85;22.77;;;;;;;0.24;100.00;100817.38;4957063;28;20047;-79
2023/01/20 01:50:04;;;;;;;92.25;25.10;;;;;;;0.25;100.00;100813.75;4921539;28;20050;-79
2023/01/20 01:52:31;;;;;;;85.03;21.42;;;;;;;0.16;100.00;100821.25;4963327;28;20105;-79
2023/01/20 01:54:57;;;;;;;88.85;22.63;;;;;;;0.23;100.00;100824.59;4960557;28;20100;-79
2023/01/20 01:57:23;;;;;;;92.97;22.95;;;;;;;0.25;100.00;100829.91;4940923;28;20124;-79
2023/01/20 01:59:50;;;;;;;87.68;23.60;;;;;;;0.32;100.00;100837.69;4944839;28;20047;-79
2023/01/20 02:02:15;;;;;;;96.05;24.40;;;;;;;0.35;100.00;100832.19;4965744;28;20047;-79
2023/01/20 02:04:41;;;;;;;95.53;26.10;;;;;;;0.36;100.00;100841.13;4948247;28;20109;-79
2023/01/20 02:07:14;;;;;;;80.78;23.17;;;;;;;0.36;100.00;100838.44;4964952;28;20466;-79
2023/01/20 02:09:40;;;;;;;90.70;24.98;;;;;;;0.48;100.00;100846.09;4953216;28;20043;-79
2023/01/20 02:12:11;;;;;;;96.47;25.77;;;;;;;0.44;100.00;100840.88;4950497;28;20030;-79
2023/01/20 02:14:40;;;;;;;94.25;25.20;;;;;;;0.34;100.00;100833.16;4933566;29;20043;-79
2023/01/20 02:17:20;;;;;;;96.75;24.90;;;;;;;0.42;100.00;100843.59;4970266;28;20382;-80
2023/01/20 02:19:57;;;;;;;104.18;27.08;;;;;;;0.39;100.00;100851.81;4934105;29;20056;-79
2023/01/20 02:22:25;;;;;;;93.80;26.73;;;;;;;0.42;100.00;100846.31;4947580;28;20039;-79
2023/01/20 02:24:51;;;;;;;105.75;28.60;;;;;;;0.48;100.00;100848.78;4937408;28;20070;-79
2023/01/20 02:27:33;;;;;;;91.72;25.63;;;;;;;0.41;100.00;100847.25;4934684;29;20121;-79
2023/01/20 02:30:16;;;;;;;95.68;27.33;;;;;;;0.43;100.00;100847.19;4956514;28;20125;-79
2023/01/20 02:32:46;;;;;;;87.47;27.05;;;;;;;0.37;100.00;100845.59;4958657;28;20050;-79
2023/01/20 02:35:42;;;;;;;94.13;27.45;;;;;;;0.38;100.00;100847.38;4934496;29;20127;-80
2023/01/20 02:38:42;;;;;;;73.97;23.50;;;;;;;0.33;100.00;100857.44;4922083;29;20557;-80
2023/01/20 02:41:20;;;;;;;101.40;25.73;;;;;;;0.31;100.00;100856.59;4939418;28;20042;-80
2023/01/20 02:44:02;;;;;;;94.32;25.75;;;;;;;0.40;100.00;100848.19;4950420;29;20542;-79
2023/01/20 02:46:35;;;;;;;78.07;25.00;;;;;;;0.33;100.00;100849.34;4937559;29;20035;-80
2023/01/20 02:49:16;;;;;;;103.88;29.60;;;;;;;0.39;100.00;100854.50;4938214;29;20035;-79
2023/01/20 02:51:50;;;;;;;96.38;25.85;;;;;;;0.39;100.00;100848.22;4955334;28;20031;-79
2023/01/20 02:54:19;;;;;;;100.65;27.10;;;;;;;0.45;100.00;100848.88;4965311;28;20058;-80
2023/01/20 02:56:47;;;;;;;103.93;27.70;;;;;;;0.51;100.00;100855.88;4944116;28;20041;-79
2023/01/20 02:59:17;;;;;;;84.43;24.65;;;;;;;0.59;100.00;100855.56;4934115;29;20046;-80
2023/01/20 03:02:09;;;;;;;101.28;25.27;;;;;;;0.52;100.00;100853.09;4949631;28;20044;-80
2023/01/20 03:04:41;;;;;;;94.68;25.35;;;;;;;0.41;100.00;100843.66;4939992;28;20054;-79
2023/01/20 03:07:10;;;;;;;79.63;22.48;;;;;;;0.47;100.00;100863.16;4917395;29;20546;-79
2023/01/20 03:09:43;;;;;;;77.65;24.13;;;;;;;0.55;100.00;100855.69;4968058;28;20038;-79
2023/01/20 03:12:23;;;;;;;90.97;24.48;;;;;;;0.61;100.00;100865.34;4972264;28;20047;-80
2023/01/20 03:14:50;;;;;;;86.07;24.08;;;;;;;0.67;100.00;100872.31;4952382;28;20059;-80
2023/01/20 03:17:17;;;;;;;99.03;25.50;;;;;;;0.71;100.00;100874.84;4934433;29;20441;-79
2023/01/20 03:19:42;;;;;;;85.00;24.20;;;;;;;0.70;100.00;100880.28;4953859;28;20430;-80
2023/01/20 03:22:08;;;;;;;95.53;26.05;;;;;;;0.65;100.00;100879.59;4966069;28;20067;-80
2023/01/20 03:24:35;;;;;;;89.97;25.63;;;;;;;0.58;100.00;100875.38;4947828;28;20401;-80
2023/01/20 03:27:00;;;;;;;81.68;24.98;;;;;;;0.64;100.00;100876.03;4936269;29;20189;-80
2023/01/20 03:29:28;;;;;;;63.03;20.95;;;;;;;0.51;100.00;100874.72;4959781;28;20568;-80
2023/01/20 03:31:57;;;;;;;71.13;22.73;;;;;;;0.51;100.00;100882.81;4968835;28;20043;-79
2023/01/20 03:34:25;;;;;;;83.00;23.67;;;;;;;0.51;100.00;100881.00;4962043;28;20035;-79
2023/01/20 03:36:52;;;;;;;66.78;22.20;;;;;;;0.52;100.00;100880.03;4953508;28;20031;-79
2023/01/20 03:39:19;;;;;;;51.50;17.58;;;;;;;0.44;100.00;100876.75;4953968;28;20041;-80
2023/01/20 03:41:56;;;;;;;77.60;23.13;;;;;;;0.52;100.00;100882.72;4956474;28;20070;-79
2023/01/20 03:44:30;;;;;;;62.72;20.55;;;;;;;0.48;100.00;100880.22;4960561;28;20038;-79
2023/01/20 03:47:23;;;;;;;79.60;24.02;;;;;;;0.47;100.00;100882.03;4948696;28;20371;-78
2023/01/20 03:49:56;;;;;;;72.95;23.85;;;;;;;0.44;100.00;100862.41;4937106;29;20051;-79
2023/01/20 03:52:52;;;;;;;77.22;23.38;;;;;;;0.53;100.00;100873.72;4935061;28;20035;-78
2023/01/20 03:55:25;;;;;;;67.03;21.45;;;;;;;0.50;100.00;100873.81;4959249;28;20027;-78
2023/01/20 03:58:02;;;;;;;75.80;23.20;;;;;;;0.49;100.00;100887.34;4960066;28;20386;-78
2023/01/20 04:00:32;;;;;;;69.80;22.27;;;;;;;0.59;100.00;100885.19;4941857;28;20034;-79
2023/01/20 04:03:02;;;;;;;64.20;19.48;;;;;;;0.40;100.00;100864.34;4943500;28;20467;-79
2023/01/20 04:05:29;;;;;;;56.67;18.88;;;;;;;0.34;100.00;100878.91;4963162;28;20032;-79
2023/01/20 04:08:01;;;;;;;64.80;20.40;;;;;;;0.43;100.00;100879.53;4938304;29;20042;-79
2023/01/20 04:10:29;;;;;;;67.53;21.95;;;;;;;0.44;100.00;100892.03;4944534;28;20121;-80
2023/01/20 04:12:55;;;;;;;69.50;20.13;;;;;;;0.42;100.00;100880.44;4954694;28;20050;-79
2023/01/20 04:15:22;;;;;;;77.70;24.38;;;;;;;0.49;100.00;100877.47;4944143;29;20039;-79
2023/01/20 04:17:47;;;;;;;68.53;22.10;;;;;;;0.52;100.00;100877.34;4936749;29;20047;-79
2023/01/20 04:20:14;;;;;;;71.15;20.83;;;;;;;0.45;100.00;100883.03;4940235;28;20706;-79
2023/01/20 04:22:47;;;;;;;73.40;22.70;;;;;;;0.49;100.00;100881.97;4957699;28;20050;-79
2023/01/20 04:25:21;;;;;;;61.75;21.10;;;;;;;0.46;100.00;100891.06;4932689;29;20074;-78
2023/01/20 04:27:46;;;;;;;64.63;22.58;;;;;;;0.41;100.00;100887.66;4946363;29;20554;-79
2023/01/20 04:30:12;;;;;;;84.25;25.63;;;;;;;0.49;100.00;100882.88;4923684;28;20142;-79
2023/01/20 04:32:38;;;;;;;72.18;23.65;;;;;;;0.47;100.00;100882.03;4943414;28;21065;-79
2023/01/20 04:35:04;;;;;;;74.22;22.77;;;;;;;0.45;100.00;100883.91;4939943;28;20114;-79
2023/01/20 04:37:29;;;;;;;77.82;24.30;;;;;;;0.52;100.00;100887.25;4940850;29;20063;-79
2023/01/20 04:39:54;;;;;;;81.47;23.50;;;;;;;0.50;100.00;100891.81;4938240;28;20039;-79
2023/01/20 04:42:20;;;;;;;67.70;21.48;;;;;;;0.42;100.00;100894.78;4953134;28;20042;-79
2023/01/20 04:44:45;;;;;;;58.88;20.48;;;;;;;0.44;100.00;100898.28;4936481;28;20042;-79
2023/01/20 04:47:11;;;;;;;78.40;23.60;;;;;;;0.54;100.00;100901.53;4953864;28;20049;-79
2023/01/20 04:49:36;;;;;;;75.60;21.92;;;;;;;0.52;100.00;100895.31;4921767;29;20031;-80
2023/01/20 04:52:02;;;;;;;83.93;23.98;;;;;;;0.53;100.00;100897.09;4924237;29;20442;-79
2023/01/20 04:54:27;;;;;;;77.35;23.60;;;;;;;0.41;100.00;100882.28;4966304;28;20057;-80
2023/01/20 04:56:52;;;;;;;81.55;25.30;;;;;;;0.53;100.00;100900.66;4966878;28;20549;-79
2023/01/20 04:59:19;;;;;;;80.75;24.52;;;;;;;0.51;100.00;100897.16;4931619;29;20074;-79
2023/01/20 05:01:44;;;;;;;87.95;24.20;;;;;;;0.53;100.00;100903.34;4958809;28;20375;-79
2023/01/20 05:04:10;;;;;;;68.00;23.00;;;;;;;0.53;100.00;100903.34;4932372;29;20093;-80
2023/01/20 05:06:35;;;;;;;76.65;23.98;;;;;;;0.55;100.00;100904.16;4962608;28;20035;-79
2023/01/20 05:09:00;;;;;;;82.32;24.75;;;;;;;0.59;100.00;100902.25;4922831;29;20138;-79
2023/01/20 05:11:26;;;;;;;77.65;25.35;;;;;;;0.61;100.00;100904.88;4941590;28;20375;-80
2023/01/20 05:13:51;;;;;;;80.15;24.80;;;;;;;0.59;100.00;100909.44;4908101;29;20042;-80
2023/01/20 05:16:23;;;;;;;85.93;24.45;;;;;;;0.54;100.00;100909.59;4931812;29;20498;-80
2023/01/20 05:18:49;;;;;;;74.83;23.47;;;;;;;0.55;100.00;100912.25;4935824;28;20122;-79
2023/01/20 05:21:15;;;;;;;79.13;25.75;;;;;;;0.58;100.00;100922.03;4965572;28;20090;-79
2023/01/20 05:23:40;;;;;;;73.07;24.45;;;;;;;0.53;100.00;100915.94;4962874;28;20049;-79
2023/01/20 05:26:06;;;;;;;78.43;23.00;;;;;;;0.60;100.00;100930.06;4947455;28;20039;-80
2023/01/20 05:28:31;;;;;;;90.35;24.38;;;;;;;0.52;100.00;100925.81;4927802;28;20039;-81
2023/01/20 05:30:56;;;;;;;51.83;19.65;;;;;;;0.41;100.00;100927.16;4931188;29;20047;-80
2023/01/20 05:33:22;;;;;;;61.28;20.05;;;;;;;0.41;100.00;100928.06;4958226;28;20485;-79
2023/01/20 05:35:47;;;;;;;62.67;21.10;;;;;;;0.40;100.00;100937.06;4928000;28;20491;-79
2023/01/20 05:38:13;;;;;;;78.85;23.40;;;;;;;0.44;100.00;100940.50;4927996;29;20023;-78
2023/01/20 05:40:38;;;;;;;64.00;22.50;;;;;;;0.41;100.00;100935.22;4954112;28;20042;-78
2023/01/20 05:43:04;;;;;;;75.88;23.88;;;;;;;0.50;100.00;100938.47;4986189;28;20035;-77
2023/01/20 05:45:30;;;;;;;58.35;19.23;;;;;;;0.44;100.00;100935.13;4954877;28;20046;-77
2023/01/20 05:47:57;;;;;;;71.65;24.33;;;;;;;0.46;100.00;100936.84;4950457;29;20023;-77
2023/01/20 05:50:24;;;;;;;74.57;24.58;;;;;;;0.43;100.00;100939.63;4963617;28;20118;-80
2023/01/20 05:52:49;;;;;;;76.32;24.00;;;;;;;0.54;100.00;100937.44;4936827;28;20133;-80
2023/01/20 05:55:15;;;;;;;72.28;23.08;;;;;;;0.51;100.00;100945.63;4937688;29;20075;-80
2023/01/20 05:57:40;;;;;;;71.97;22.33;;;;;;;0.43;100.00;100946.84;4940066;28;20401;-80
2023/01/20 06:00:07;;;;;;;68.15;22.08;;;;;;;0.35;100.00;100936.34;4927937;28;20129;-79
2023/01/20 06:02:33;;;;;;;62.60;23.83;;;;;;;0.38;100.00;100949.69;4970840;28;20047;-80
2023/01/20 06:05:01;;;;;;;53.35;17.85;;;;;;;0.30;100.00;100949.09;4943049;29;20043;-79
2023/01/20 06:07:28;;;;;;;83.25;26.48;;;;;;;0.32;100.00;100944.53;4957716;28;20423;-80
2023/01/20 06:09:54;;;;;;;72.57;23.10;;;;;;;0.26;100.00;100933.97;4954336;28;20055;-79
2023/01/20 06:12:19;;;;;;;76.18;25.33;;;;;;;0.33;100.00;100952.56;4964620;28;20446;-80
2023/01/20 06:14:45;;;;;;;78.80;25.52;;;;;;;0.26;100.00;100950.13;4962529;28;20039;-80
2023/01/20 06:17:10;;;;;;;81.15;24.48;;;;;;;0.33;100.00;100952.56;4919652;29;20032;-80
2023/01/20 06:19:35;;;;;;;73.07;23.13;;;;;;;0.38;100.00;100963.16;4929008;29;20122;-81
2023/01/20 06:22:01;;;;;;;75.80;23.83;;;;;;;0.30;100.00;100949.97;4943657;28;20097;-80
2023/01/20 06:24:27;;;;;;;69.05;23.10;;;;;;;0.32;100.00;100949.91;4970273;28;20106;-80
2023/01/20 06:26:52;;;;;;;81.50;25.70;;;;;;;0.40;100.00;100963.13;4970659;28;20071;-79
2023/01/20 06:29:18;;;;;;;84.60;25.92;;;;;;;0.47;100.00;100965.50;4923300;28;20039;-80
2023/01/20 06:31:44;;;;;;;78.65;22.13;;;;;;;0.45;100.00;100970.09;4957456;28;20098;-80
2023/01/20 06:34:10;;;;;;;79.18;23.95;;;;;;;0.42;100.00;100962.09;4962296;28;20047;-80
2023/01/20 06:36:36;;;;;;;91.75;25.13;;;;;;;0.40;100.00;100960.44;4958068;28;20399;-80
2023/01/20 06:39:02;;;;;;;76.78;22.90;;;;;;;0.35;100.00;100966.84;4932600;28;20036;-80
2023/01/20 06:41:27;;;;;;;82.45;24.48;;;;;;;0.41;100.00;100971.16;4963205;28;20024;-81
2023/01/20 06:43:53;;;;;;;75.03;24.25;;;;;;;0.36;100.00;100978.47;4925411;29;20046;-81
2023/01/20 06:46:18;;;;;;;59.35;19.80;;;;;;;0.29;100.00;100976.94;4941271;28;20089;-81
2023/01/20 06:48:44;;;;;;;75.07;23.35;;;;;;;0.41;100.00;100989.09;4944213;29;20032;-81
2023/01/20 06:51:13;;;;;;;63.72;20.95;;;;;;;0.38;100.00;100978.44;4960279;28;20433;-81
2023/01/20 06:53:39;;;;;;;67.20;22.15;;;;;;;0.37;100.00;100985.63;4948672;28;20027;-81
2023/01/20 06:56:05;;;;;;;63.47;22.17;;;;;;;0.36;100.00;100978.47;4957189;28;20051;-81
2023/01/20 06:58:32;;;;;;;69.88;21.52;;;;;;;0.40;100.00;100979.28;4954805;28;20380;-80
2023/01/20 07:01:10;;;;;;;59.45;21.48;;;;;;;0.41;100.00;100987.31;4930599;29;20050;-81
2023/01/20 07:03:36;;;;;;;47.63;17.83;;;;;;;0.40;100.00;100988.22;4955531;28;20063;-81
2023/01/20 07:06:17;;;;;;;63.47;22.73;;;;;;;0.45;100.00;100982.69;4931108;29;20046;-79
2023/01/20 07:08:44;;;;;;;53.85;18.55;;;;;;;0.44;100.00;100986.31;4954947;28;20483;-80
2023/01/20 07:11:10;;;;;;;46.45;15.27;;;;;;;0.41;100.00;100990.00;4956394;28;20414;-81
2023/01/20 07:13:35;;;;;;;66.18;19.48;;;;;;;0.42;100.00;100986.34;4947077;28;20038;-81
2023/01/20 07:16:01;;;;;;;38.13;12.95;;;;;;;0.45;100.00;100991.63;4928253;29;20386;-81
2023/01/20 07:18:26;;;;;;;59.72;21.42;;;;;;;0.51;100.00;100986.03;4937852;29;20035;-80
2023/01/20 07:20:55;;;;;;;81.40;22.98;;;;;;;0.52;100.00;100982.38;4943680;28;20525;-81
2023/01/20 07:23:21;;;;;;;63.67;22.60;;;;;;;0.52;100.00;100989.59;4938898;28;20497;-81
2023/01/20 07:25:56;;;;;;;42.60;15.57;;;;;;;0.48;100.00;100991.53;4949121;29;20043;-81
2023/01/20 07:28:21;;;;;;;82.03;22.58;;;;;;;0.62;100.00;101006.31;4956612;28;20117;-80
2023/01/20 07:30:47;;;;;;;69.75;21.83;;;;;;;0.59;100.00;100993.84;4954555;28;20063;-81
2023/01/20 07:33:12;;;;;;;73.93;22.25;;;;;;;0.65;100.00;100995.44;4928068;29;20063;-80
2023/01/20 07:35:38;;;;;;;68.00;21.50;;;;;;;0.66;100.00;100997.22;4936436;29;20028;-81
2023/01/20 07:38:03;;;;;;;71.90;22.88;;;;;;;0.66;100.00;101006.16;4940486;28;20038;-81
2023/01/20 07:40:29;;;;;;;76.03;22.15;;;;;;;0.66;100.00;101013.38;4982349;28;20035;-81
2023/01/20 07:42:54;;;;;;;73.57;22.15;;;;;;;0.68;100.00;101017.75;4960964;28;20039;-81
2023/01/20 07:45:19;;;;;;;72.03;22.67;;;;;;;0.64;100.00;101009.84;4963322;28;20500;-81
2023/01/20 07:47:45;;;;;;;72.05;22.38;;;;;;;0.66;100.00;101019.63;4942630;29;20118;-80
2023/01/20 07:50:10;;;;;;;68.78;22.88;;;;;;;0.66;100.00;101021.47;4956569;29;20114;-79
2023/01/20 07:52:36;;;;;;;56.53;19.33;;;;;;;0.64;100.00;101034.97;4950051;28;20062;-80
2023/01/20 07:55:01;;;;;;;67.40;21.98;;;;;;;0.73;100.00;101026.56;4966793;28;20388;-79
2023/01/20 07:57:29;;;;;;;67.40;21.42;;;;;;;0.77;100.00;101030.06;4944860;28;20534;-81
2023/01/20 07:59:54;;;;;;;71.22;23.63;;;;;;;0.80;100.00;101027.22;4948073;28;20113;-82
2023/01/20 08:02:20;;;;;;;71.72;23.52;;;;;;;0.85;100.00;101014.47;4986098;28;20123;-81
2023/01/20 08:04:45;;;;;;;72.65;22.80;;;;;;;0.70;100.00;101013.19;4944847;29;20399;-81
2023/01/20 08:07:11;;;;;;;69.95;22.23;;;;;;;0.78;100.00;101030.91;4947278;28;20506;-81
2023/01/20 08:09:36;;;;;;;67.63;22.40;;;;;;;0.72;100.00;101015.81;4926830;29;20122;-82
2023/01/20 08:12:01;;;;;;;79.90;24.77;;;;;;;0.73;100.00;101025.69;4924844;29;20538;-81
2023/01/20 08:14:27;;;;;;;74.95;22.80;;;;;;;0.73;100.00;101023.84;4929724;28;20034;-81
2023/01/20 08:16:52;;;;;;;62.35;23.02;;;;;;;0.78;100.00;101033.63;4936239;29;20122;-80
2023/01/20 08:19:18;;;;;;;70.95;21.65;;;;;;;0.76;100.00;101033.66;4952696;28;20031;-81
2023/01/20 08:21:43;;;;;;;67.18;22.55;;;;;;;0.69;100.00;101024.91;4960812;28;20110;-81
2023/01/20 08:24:09;;;;;;;63.97;22.38;;;;;;;0.54;100.00;100999.41;4959179;28;20121;-81
2023/01/20 08:26:35;;;;;;;65.25;21.85;;;;;;;0.67;100.00;101026.81;4961747;28;20123;-81
2023/01/20 08:29:07;;;;;;;63.45;20.90;;;;;;;0.72;100.00;101040.97;4968029;28;20046;-80
2023/01/20 08:31:33;;;;;;;65.97;24.27;;;;;;;0.72;100.00;101034.69;4956294;28;20142;-80
2023/01/20 08:33:58;;;;;;;67.93;22.17;;;;;;;0.70;100.00;101033.88;4942019;29;20071;-81
2023/01/20 08:36:30;;;;;;;68.80;22.50;;;;;;;0.72;100.00;101029.31;4942107;29;20066;-81
2023/01/20 08:38:58;;;;;;;61.73;21.70;;;;;;;0.71;100.00;101024.88;4959839;28;20035;-80
2023/01/20 08:41:27;;;;;;;61.10;20.60;;;;;;;0.68;100.00;101033.06;4950105;28;20039;-80
2023/01/20 08:43:52;;;;;;;67.43;22.25;;;;;;;0.71;100.00;101017.66;4964226;28;20039;-80
2023/01/20 08:46:20;;;;;;;62.17;21.45;;;;;;;0.63;100.00;101002.72;4936493;29;20036;-80
2023/01/20 08:48:46;;;;;;;71.65;23.42;;;;;;;0.78;100.00;101023.69;4968022;28;20450;-80
2023/01/20 08:51:21;;;;;;;63.80;20.83;;;;;;;0.79;100.00;101020.09;4963894;28;20078;-81
2023/01/20 08:53:47;;;;;;;70.57;23.80;;;;;;;0.82;100.00;101022.66;4958640;28;20042;-80
2023/01/20 08:56:14;;;;;;;68.25;23.17;;;;;;;0.81;100.00;101031.69;4946589;29;20054;-80
2023/01/20 08:58:40;;;;;;;48.92;17.52;;;;;;;0.74;100.00;101022.06;4959072;29;20106;-79
2023/01/20 09:01:20;;;;;;;59.30;20.92;;;;;;;0.77;100.00;101027.34;4970389;28;20094;-79
2023/01/20 09:03:46;;;;;;;55.03;21.65;;;;;;;0.60;100.00;101002.81;4960840;28;20089;-79
2023/01/20 09:06:13;;;;;;;69.22;24.10;;;;;;;0.69;100.00;101027.63;4945489;28;20035;-79
2023/01/20 09:08:38;;;;;;;65.15;22.23;;;;;;;0.71;100.00;101038.34;4978404;28;20034;-79
2023/01/20 09:11:10;;;;;;;73.03;23.73;;;;;;;0.71;100.00;101036.50;4974085;28;20402;-79
2023/01/20 09:13:36;;;;;;;56.72;20.40;;;;;;;0.69;100.00;101030.31;4977930;28;20041;-79
2023/01/20 09:16:03;;;;;;;59.33;21.30;;;;;;;0.64;100.00;101034.09;4960699;28;20038;-79
2023/01/20 09:18:30;;;;;;;58.42;21.23;;;;;;;0.70;100.00;101037.44;4949161;29;20118;-79
2023/01/20 09:20:57;;;;;;;71.10;24.10;;;;;;;0.63;100.00;101021.56;4959010;29;20390;-79
2023/01/20 09:23:23;;;;;;;64.30;22.33;;;;;;;0.60;100.00;101027.94;4958051;28;20034;-79
2023/01/20 09:25:48;;;;;;;53.28;20.35;;;;;;;0.67;100.00;101044.75;4961092;28;20043;-79
2023/01/20 09:28:14;;;;;;;51.13;19.17;;;;;;;0.64;100.00;101045.75;4945042;28;20097;-79
2023/01/20 09:30:41;;;;;;;64.93;22.02;;;;;;;0.70;100.00;101045.53;4961012;28;20082;-79
2023/01/20 09:33:08;;;;;;;65.93;23.05;;;;;;;0.82;100.00;101063.09;4975839;28;20038;-79
2023/01/20 09:35:33;;;;;;;60.83;21.48;;;;;;;0.77;100.00;101056.09;4976870;28;20078;-80
2023/01/20 09:43:55;;;;;;;50.15;19.00;;;;;;;0.77;100.00;101065.09;4958676;29;20114;-79
2023/01/20 09:46:38;;;;;;;53.17;20.33;;;;;;;0.81;100.00;101065.84;4958547;29;20122;-79
2023/01/20 09:55:16;;;;;;;64.03;23.05;;;;;;;0.81;100.00;101071.22;4958404;29;20031;-79
2023/01/20 09:57:47;;;;;;;43.25;17.33;;;;;;;0.76;100.00;101068.69;4958278;29;20391;-79
2023/01/20 10:00:22;;;;;;;49.50;18.75;;;;;;;0.77;100.00;101067.78;4966702;28;20039;-79
2023/01/20 10:02:52;;;;;;;38.40;16.35;;;;;;;0.73;100.00;101066.09;4977431;28;20034;-79
2023/01/20 10:05:31;;;;;;;51.20;18.52;;;;;;;0.76;100.00;101068.69;4943477;28;20026;-80
2023/01/20 10:08:05;;;;;;;45.50;18.17;;;;;;;0.72;100.00;101064.34;4962232;28;20046;-79
2023/01/20 10:10:38;;;;;;;51.90;19.95;;;;;;;0.77;100.00;101064.19;4924666;29;20035;-79
2023/01/20 10:13:15;;;;;;;46.58;18.50;;;;;;;0.73;100.00;101071.50;4960134;28;20042;-79
2023/01/20 10:15:49;;;;;;;43.90;18.27;;;;;;;0.70;100.00;101077.00;4946664;28;20030;-78
2023/01/20 10:18:36;;;;;;;43.65;17.42;;;;;;;0.71;100.00;101074.25;4976527;28;20078;-78
2023/01/20 10:21:16;;;;;;;47.17;18.27;;;;;;;0.59;100.00;101054.91;4971129;28;20117;-78
2023/01/20 10:23:56;;;;;;;52.30;19.63;;;;;;;0.66;100.00;101068.13;4936435;29;20035;-79
2023/01/20 10:26:41;;;;;;;47.92;18.75;;;;;;;0.64;100.00;101059.22;4933584;29;20050;-78
2023/01/20 10:29:11;;;;;;;48.35;18.80;;;;;;;0.65;100.00;101060.97;4956322;28;20130;-78
2023/01/20 10:31:43;;;;;;;48.58;18.05;;;;;;;0.56;100.00;101064.00;4955301;29;20039;-78
2023/01/20 10:34:14;;;;;;;43.95;17.98;;;;;;;0.52;100.00;101059.63;4956697;29;20122;-78
2023/01/20 10:36:47;;;;;;;37.65;15.82;;;;;;;0.51;100.00;101045.31;4937412;29;20031;-78
2023/01/20 10:39:22;;;;;;;40.33;18.05;;;;;;;0.51;100.00;101055.22;4934190;28;20050;-78
2023/01/20 10:42:07;;;;;;;45.88;17.98;;;;;;;0.45;100.00;101048.19;4940316;29;20035;-78
2023/01/20 10:44:34;;;;;;;41.63;17.48;;;;;;;0.50;100.00;101048.91;4938846;29;20048;-78
2023/01/20 10:47:18;;;;;;;46.40;19.80;;;;;;;0.50;100.00;101057.00;4938745;29;20031;-77
2023/01/20 10:49:44;;;;;;;41.55;18.10;;;;;;;0.55;100.00;101056.84;4939467;29;20071;-77
2023/01/20 10:52:37;;;;;;;42.72;17.98;;;;;;;0.54;100.00;101053.28;4943301;28;20038;-78
2023/01/20 10:55:40;;;;;;;44.53;18.02;;;;;;;0.55;100.00;101054.16;4944269;28;20101;-77
2023/01/20 10:58:27;;;;;;;41.70;17.23;;;;;;;0.63;100.00;101054.75;4960991;28;20121;-77
2023/01/20 11:00:53;;;;;;;49.22;19.10;;;;;;;0.67;100.00;101058.22;4961167;28;20489;-77
2023/01/20 11:03:21;;;;;;;46.80;19.45;;;;;;;0.66;100.00;101061.88;4945016;28;20477;-77
2023/01/20 11:05:49;;;;;;;40.60;16.38;;;;;;;0.72;100.00;101058.94;4961650;28;20094;-77
2023/01/20 11:08:20;;;;;;;51.88;19.27;;;;;;;0.79;100.00;101065.00;4958102;28;20031;-77
2023/01/20 11:10:48;;;;;;;50.25;19.70;;;;;;;0.75;100.00;101068.75;4959052;29;20063;-78
2023/01/20 11:13:14;;;;;;;52.90;21.02;;;;;;;0.78;100.00;101061.44;4959301;28;20035;-77
2023/01/20 11:16:21;;;;;;;43.30;17.85;;;;;;;0.82;100.00;101067.59;4958564;29;20034;-77
2023/01/20 11:19:07;;;;;;;36.83;16.15;;;;;;;0.79;100.00;101065.00;4959768;28;20027;-77
2023/01/20 11:21:35;;;;;;;40.35;16.42;;;;;;;0.80;100.00;101062.25;4975888;28;20397;-77
2023/01/20 11:24:21;;;;;;;40.60;17.25;;;;;;;0.78;100.00;101056.03;4960337;28;20031;-77
2023/01/20 11:26:47;;;;;;;33.20;14.63;;;;;;;0.78;100.00;101060.56;4944322;28;20465;-78
2023/01/20 11:29:12;;;;;;;41.17;16.80;;;;;;;0.89;100.00;101071.84;4944814;28;20137;-77